Time;durP1;ratioP1;P1;durP2;ratioP2;P2;SDS_P1;SDS_P2;PMS_P1;PMS_P2;Temp;Humidity;BMP_temperature;BMP_pressure;BME280_temperature;BME280_humidity;BME280_pressure;Samples;Min_cycle;Max_cycle;Signal;HPM_P1;HPM_P2
2024/02/25 00:02:23;;;;;;;3.53;0.50;;;;;;;;;;5012406;28;20562;-80
2024/02/25 00:04:49;;;;;;;1.73;0.40;;;;;;;;;;5012291;28;20897;-79
2024/02/25 00:07:15;;;;;;;0.73;0.40;;;;;;;;;;5012218;28;20431;-80
2024/02/25 00:09:41;;;;;;;1.27;0.87;;;;;;;;;;5012299;28;20948;-79
2024/02/25 00:12:07;;;;;;;1.93;0.70;;;;;;;;;;5011771;28;20473;-78
2024/02/25 00:14:33;;;;;;;0.60;0.40;;;;;;;;;;5012230;28;20448;-78
2024/02/25 00:16:58;;;;;;;0.93;0.67;;;;;;;;;;5012782;28;20422;-83
2024/02/25 00:19:29;;;;;;;1.50;0.77;;;;;;;;;;5014328;28;20432;-78
2024/02/25 00:21:55;;;;;;;2.70;0.97;;;;;;;;;;5014475;28;20783;-78
2024/02/25 00:24:22;;;;;;;5.23;1.83;;;;;;;;;;5015627;28;20510;-78
2024/02/25 00:26:48;;;;;;;2.10;1.03;;;;;;;;;;5015152;28;20419;-80
2024/02/25 00:29:15;;;;;;;1.30;1.10;;;;;;;;;;5015464;28;20826;-79
2024/02/25 00:31:41;;;;;;;1.93;0.70;;;;;;;;;;5015251;28;20415;-81
2024/02/25 00:34:08;;;;;;;2.70;1.20;;;;;;;;;;5014007;28;20435;-80
2024/02/25 00:36:33;;;;;;;1.10;0.90;;;;;;;;;;5015408;28;20506;-79
2024/02/25 00:39:02;;;;;;;1.40;1.10;;;;;;;;;;5013856;28;20462;-79
2024/02/25 00:41:27;;;;;;;1.53;1.00;;;;;;;;;;5014827;28;20493;-80
2024/02/25 00:43:53;;;;;;;1.27;1.17;;;;;;;;;;5015126;28;20438;-80
2024/02/25 00:46:19;;;;;;;2.57;1.37;;;;;;;;;;5015143;28;20419;-81
2024/02/25 00:48:45;;;;;;;1.60;1.10;;;;;;;;;;5015031;28;20514;-80
2024/02/25 00:51:11;;;;;;;1.67;0.87;;;;;;;;;;5013700;28;20849;-78
2024/02/25 00:53:37;;;;;;;1.80;1.20;;;;;;;;;;5015007;28;20478;-79
2024/02/25 00:56:03;;;;;;;1.90;1.03;;;;;;;;;;5019919;28;20819;-79
2024/02/25 00:58:29;;;;;;;2.87;0.97;;;;;;;;;;5020167;28;20433;-79
2024/02/25 01:00:55;;;;;;;2.87;0.83;;;;;;;;;;5014869;28;20408;-79
2024/02/25 01:03:21;;;;;;;1.67;1.20;;;;;;;;;;5014884;28;20418;-80
2024/02/25 01:05:47;;;;;;;1.13;0.90;;;;;;;;;;5014826;28;20464;-78
2024/02/25 01:08:13;;;;;;;1.37;1.27;;;;;;;;;;5014667;28;20513;-80
2024/02/25 01:10:40;;;;;;;0.97;0.57;;;;;;;;;;5014741;28;20438;-79
2024/02/25 01:13:06;;;;;;;3.80;1.30;;;;;;;;;;5014025;28;20478;-80
2024/02/25 01:15:32;;;;;;;1.27;0.80;;;;;;;;;;5013312;28;20411;-79
2024/02/25 01:17:58;;;;;;;1.13;1.03;;;;;;;;;;5013543;28;20430;-80
2024/02/25 01:20:24;;;;;;;2.50;0.80;;;;;;;;;;5013666;28;20410;-79
2024/02/25 01:22:50;;;;;;;1.77;0.97;;;;;;;;;;5014008;28;20428;-79
2024/02/25 01:25:16;;;;;;;2.50;0.80;;;;;;;;;;5014245;28;20567;-78
2024/02/25 01:27:45;;;;;;;2.27;0.90;;;;;;;;;;5013947;28;20436;-78
2024/02/25 01:30:13;;;;;;;2.13;1.03;;;;;;;;;;5012662;28;20776;-78
2024/02/25 01:32:39;;;;;;;1.50;1.20;;;;;;;;;;5014239;28;20478;-78
2024/02/25 01:35:12;;;;;;;1.23;1.10;;;;;;;;;;5014360;28;20415;-79
2024/02/25 01:37:38;;;;;;;1.50;1.30;;;;;;;;;;5012874;28;20529;-80
2024/02/25 01:40:04;;;;;;;0.90;0.70;;;;;;;;;;5090702;22;20642;-81
2024/02/25 01:42:30;;;;;;;2.20;1.27;;;;;;;;;;5033627;28;20413;-80
2024/02/25 01:45:00;;;;;;;2.20;1.43;;;;;;;;;;5032624;28;20419;-81
2024/02/25 01:47:28;;;;;;;2.13;1.43;;;;;;;;;;5033851;28;20475;-79
2024/02/25 01:49:54;;;;;;;1.97;0.60;;;;;;;;;;5033799;28;20856;-81
2024/02/25 01:52:20;;;;;;;1.30;0.90;;;;;;;;;;5033608;28;20986;-79
2024/02/25 01:54:46;;;;;;;1.57;1.43;;;;;;;;;;5033748;28;20404;-78
2024/02/25 01:57:12;;;;;;;1.53;1.00;;;;;;;;;;5032057;28;20933;-79
2024/02/25 01:59:39;;;;;;;2.00;1.07;;;;;;;;;;5033683;28;20413;-79
2024/02/25 02:02:13;;;;;;;1.90;1.80;;;;;;;;;;5033694;28;20442;-79
2024/02/25 02:04:38;;;;;;;2.37;1.97;;;;;;;;;;5033674;28;20488;-80
2024/02/25 02:07:04;;;;;;;4.63;1.50;;;;;;;;;;5033594;28;20869;-80
2024/02/25 02:09:32;;;;;;;1.83;1.37;;;;;;;;;;5033530;28;20416;-79
2024/02/25 02:11:58;;;;;;;3.37;1.17;;;;;;;;;;5032487;28;20414;-82
2024/02/25 02:14:24;;;;;;;2.53;1.70;;;;;;;;;;5032766;28;20753;-80
2024/02/25 02:16:50;;;;;;;1.67;0.80;;;;;;;;;;5032854;28;20401;-79
2024/02/25 02:19:16;;;;;;;1.37;1.03;;;;;;;;;;5032688;28;20413;-80
2024/02/25 02:21:42;;;;;;;2.20;1.40;;;;;;;;;;5031419;28;20408;-81
2024/02/25 02:24:08;;;;;;;1.73;1.00;;;;;;;;;;5030020;28;20775;-79
2024/02/25 02:26:34;;;;;;;2.87;1.87;;;;;;;;;;5032323;28;20409;-79
2024/02/25 02:29:00;;;;;;;1.30;1.20;;;;;;;;;;5032689;28;20886;-80
2024/02/25 02:31:26;;;;;;;2.20;1.53;;;;;;;;;;5032524;28;20410;-79
2024/02/25 02:33:52;;;;;;;2.10;1.00;;;;;;;;;;5032532;28;20488;-79
2024/02/25 02:36:18;;;;;;;1.63;0.67;;;;;;;;;;5032335;28;20433;-79
2024/02/25 02:38:44;;;;;;;3.43;1.63;;;;;;;;;;5031730;28;20417;-79
2024/02/25 02:41:10;;;;;;;1.33;1.23;;;;;;;;;;5032106;28;20443;-79
2024/02/25 02:43:36;;;;;;;1.90;1.43;;;;;;;;;;5032487;28;20410;-79
2024/02/25 02:46:05;;;;;;;2.00;0.83;;;;;;;;;;5032243;28;20417;-83
2024/02/25 02:48:33;;;;;;;1.47;1.30;;;;;;;;;;5029902;28;20981;-83
2024/02/25 02:50:59;;;;;;;2.50;1.50;;;;;;;;;;5032439;28;20469;-79
2024/02/25 02:53:27;;;;;;;2.23;1.80;;;;;;;;;;5032173;28;20948;-79
2024/02/25 02:55:53;;;;;;;2.07;1.40;;;;;;;;;;5032318;28;20411;-79
2024/02/25 02:58:19;;;;;;;1.07;0.97;;;;;;;;;;5031806;28;20766;-79
2024/02/25 03:00:45;;;;;;;2.70;1.70;;;;;;;;;;5032095;28;20419;-82
2024/02/25 03:03:11;;;;;;;1.70;1.40;;;;;;;;;;5032190;28;20500;-80
2024/02/25 03:05:37;;;;;;;3.43;1.30;;;;;;;;;;5032162;28;20436;-79
2024/02/25 03:08:03;;;;;;;4.73;1.00;;;;;;;;;;5032128;28;20405;-79
2024/02/25 03:10:30;;;;;;;1.73;0.90;;;;;;;;;;5029487;28;20412;-83
2024/02/25 03:12:56;;;;;;;2.43;1.10;;;;;;;;;;5031696;28;20507;-80
2024/02/25 03:15:22;;;;;;;2.33;0.67;;;;;;;;;;5032089;28;20402;-79
2024/02/25 03:17:50;;;;;;;1.70;1.20;;;;;;;;;;5031960;28;20430;-80
2024/02/25 03:20:19;;;;;;;2.50;1.23;;;;;;;;;;5032026;28;20412;-80
2024/02/25 03:22:45;;;;;;;1.50;0.87;;;;;;;;;;5031884;28;20413;-80
2024/02/25 03:25:12;;;;;;;4.10;0.80;;;;;;;;;;5031961;28;20492;-80
2024/02/25 03:27:38;;;;;;;0.90;0.50;;;;;;;;;;5031753;28;20409;-81
2024/02/25 03:30:07;;;;;;;3.60;2.70;;;;;;;;;;5031948;28;20404;-79
2024/02/25 03:32:33;;;;;;;1.13;0.90;;;;;;;;;;5031870;28;20478;-82
2024/02/25 03:34:59;;;;;;;2.53;0.70;;;;;;;;;;5032047;28;20509;-80
2024/02/25 03:37:25;;;;;;;1.10;1.00;;;;;;;;;;5031681;28;20407;-81
2024/02/25 03:39:51;;;;;;;1.27;0.70;;;;;;;;;;5030410;28;20484;-81
2024/02/25 03:42:17;;;;;;;1.30;0.87;;;;;;;;;;5033241;28;20413;-80
2024/02/25 03:44:43;;;;;;;2.10;0.73;;;;;;;;;;5032646;28;21252;-80
2024/02/25 03:47:09;;;;;;;1.97;0.83;;;;;;;;;;5027924;28;20427;-82
2024/02/25 03:49:37;;;;;;;2.17;1.33;;;;;;;;;;5031745;28;20421;-79
2024/02/25 03:52:03;;;;;;;3.63;1.53;;;;;;;;;;5034346;28;20419;-79
2024/02/25 03:54:29;;;;;;;0.90;0.50;;;;;;;;;;5035482;28;20435;-79
2024/02/25 03:56:55;;;;;;;2.17;0.57;;;;;;;;;;5035123;28;20445;-78
2024/02/25 03:59:21;;;;;;;1.43;0.70;;;;;;;;;;5035461;28;20417;-79
2024/02/25 04:01:48;;;;;;;1.10;0.70;;;;;;;;;;5035322;28;20416;-78
2024/02/25 04:04:14;;;;;;;0.97;0.57;;;;;;;;;;5035337;28;20417;-79
2024/02/25 04:06:40;;;;;;;2.20;0.50;;;;;;;;;;5035334;28;20496;-80
2024/02/25 04:09:07;;;;;;;3.37;1.00;;;;;;;;;;5035207;28;20470;-80
2024/02/25 04:11:33;;;;;;;1.23;0.67;;;;;;;;;;5034909;28;20448;-79
2024/02/25 04:13:59;;;;;;;2.73;1.17;;;;;;;;;;5050499;28;20499;-79
2024/02/25 04:16:25;;;;;;;2.40;0.60;;;;;;;;;;5035062;28;20409;-78
2024/02/25 04:18:52;;;;;;;1.00;0.67;;;;;;;;;;5035012;28;20416;-79
2024/02/25 04:21:18;;;;;;;2.40;1.00;;;;;;;;;;5033755;28;20436;-80
2024/02/25 04:23:44;;;;;;;1.23;0.63;;;;;;;;;;5034970;28;20431;-79
2024/02/25 04:26:10;;;;;;;1.20;0.87;;;;;;;;;;5034675;28;20413;-79
2024/02/25 04:28:36;;;;;;;2.50;1.20;;;;;;;;;;5034827;28;20473;-79
2024/02/25 04:31:02;;;;;;;2.17;1.17;;;;;;;;;;5034849;28;20401;-79
2024/02/25 04:33:28;;;;;;;2.00;0.77;;;;;;;;;;5033263;28;20972;-79
2024/02/25 04:35:55;;;;;;;1.73;0.80;;;;;;;;;;5034655;28;20492;-79
2024/02/25 04:38:21;;;;;;;1.37;1.10;;;;;;;;;;5034605;28;20411;-79
2024/02/25 04:40:52;;;;;;;1.33;0.53;;;;;;;;;;5032801;28;20455;-78
2024/02/25 04:43:18;;;;;;;3.10;0.93;;;;;;;;;;5034663;28;20390;-81
2024/02/25 04:45:45;;;;;;;1.77;0.63;;;;;;;;;;5034447;28;20424;-79
2024/02/25 04:48:11;;;;;;;1.33;0.60;;;;;;;;;;5034527;28;20402;-79
2024/02/25 04:50:39;;;;;;;2.37;0.70;;;;;;;;;;5034442;28;20935;-80
2024/02/25 04:53:05;;;;;;;2.20;1.10;;;;;;;;;;5032957;28;20948;-79
2024/02/25 04:55:31;;;;;;;2.90;0.83;;;;;;;;;;5034335;28;20496;-79
2024/02/25 04:57:57;;;;;;;0.80;0.57;;;;;;;;;;5032827;28;20427;-79
2024/02/25 05:00:23;;;;;;;4.37;0.93;;;;;;;;;;5034146;28;20745;-79
2024/02/25 05:02:49;;;;;;;1.63;0.80;;;;;;;;;;5031025;28;20428;-78
2024/02/25 05:05:15;;;;;;;2.03;0.60;;;;;;;;;;5034225;28;20406;-78
2024/02/25 05:07:41;;;;;;;1.10;0.53;;;;;;;;;;5034157;28;20413;-80
2024/02/25 05:10:07;;;;;;;1.37;0.87;;;;;;;;;;5034047;28;20782;-79
2024/02/25 05:12:33;;;;;;;0.77;0.33;;;;;;;;;;5033614;28;20500;-78
2024/02/25 05:15:01;;;;;;;1.23;0.57;;;;;;;;;;5034108;28;20465;-78
2024/02/25 05:17:27;;;;;;;1.30;0.40;;;;;;;;;;5032560;28;20414;-79
2024/02/25 05:19:53;;;;;;;1.47;0.60;;;;;;;;;;5033880;28;20458;-79
2024/02/25 05:22:19;;;;;;;2.50;0.60;;;;;;;;;;5033923;28;20921;-79
2024/02/25 05:24:46;;;;;;;1.80;0.70;;;;;;;;;;5033834;28;20408;-79
2024/02/25 05:27:12;;;;;;;1.77;0.70;;;;;;;;;;5033360;28;20407;-79
2024/02/25 05:29:38;;;;;;;1.17;0.40;;;;;;;;;;5033694;28;20483;-79
2024/02/25 05:32:04;;;;;;;2.80;0.60;;;;;;;;;;5033553;28;20522;-78
2024/02/25 05:34:30;;;;;;;2.77;0.47;;;;;;;;;;5033538;28;20419;-80
2024/02/25 05:36:56;;;;;;;1.87;1.17;;;;;;;;;;5033588;28;20415;-79
2024/02/25 05:39:22;;;;;;;2.80;1.17;;;;;;;;;;5031904;28;20456;-78
2024/02/25 05:41:48;;;;;;;1.83;1.27;;;;;;;;;;5033078;28;20417;-79
2024/02/25 05:44:15;;;;;;;1.50;0.50;;;;;;;;;;5033467;28;20470;-79
2024/02/25 05:46:41;;;;;;;2.40;0.50;;;;;;;;;;5032174;28;20496;-79
2024/02/25 05:49:07;;;;;;;2.50;1.20;;;;;;;;;;5031947;28;20509;-78
2024/02/25 05:51:33;;;;;;;1.43;0.50;;;;;;;;;;5033367;28;20421;-79
2024/02/25 05:53:59;;;;;;;1.70;0.63;;;;;;;;;;5033113;28;20469;-79
2024/02/25 05:56:26;;;;;;;0.83;0.50;;;;;;;;;;5031483;28;20481;-79
2024/02/25 05:58:52;;;;;;;1.50;0.73;;;;;;;;;;5033172;28;20504;-79
2024/02/25 06:01:18;;;;;;;2.17;0.77;;;;;;;;;;5033181;28;20544;-79
2024/02/25 06:03:45;;;;;;;1.17;0.73;;;;;;;;;;5033520;28;20416;-79
2024/02/25 06:06:11;;;;;;;1.40;0.90;;;;;;;;;;5029376;28;20470;-79
2024/02/25 06:08:37;;;;;;;2.33;0.60;;;;;;;;;;5033020;28;20426;-79
2024/02/25 06:11:03;;;;;;;1.23;0.63;;;;;;;;;;5032562;28;20436;-78
2024/02/25 06:13:29;;;;;;;3.80;0.57;;;;;;;;;;5028025;28;20567;-78
2024/02/25 06:15:55;;;;;;;1.47;1.10;;;;;;;;;;5031590;28;20844;-80
2024/02/25 06:18:21;;;;;;;1.90;0.77;;;;;;;;;;5032814;28;20418;-78
2024/02/25 06:20:50;;;;;;;1.10;0.90;;;;;;;;;;5032691;28;20412;-79
2024/02/25 06:23:16;;;;;;;1.10;0.40;;;;;;;;;;5032659;28;20501;-79
2024/02/25 06:25:41;;;;;;;1.37;1.20;;;;;;;;;;5032307;28;20503;-79
2024/02/25 06:28:07;;;;;;;1.10;0.40;;;;;;;;;;5032584;28;20413;-78
2024/02/25 06:30:33;;;;;;;2.70;0.80;;;;;;;;;;5032573;28;20403;-80
2024/02/25 06:32:59;;;;;;;5.43;2.33;;;;;;;;;;5032537;28;20474;-77
2024/02/25 06:35:25;;;;;;;5.93;2.47;;;;;;;;;;5032473;28;20408;-81
2024/02/25 06:37:51;;;;;;;4.30;2.73;;;;;;;;;;5032440;28;20414;-78
2024/02/25 06:40:18;;;;;;;5.00;2.93;;;;;;;;;;5032262;28;20464;-77
2024/02/25 06:42:44;;;;;;;3.60;1.30;;;;;;;;;;5032130;28;20417;-78
2024/02/25 06:45:10;;;;;;;3.70;1.43;;;;;;;;;;5032337;28;20828;-77
2024/02/25 06:47:36;;;;;;;3.60;1.80;;;;;;;;;;5031731;28;20425;-77
2024/02/25 06:50:02;;;;;;;1.63;1.50;;;;;;;;;;5032317;28;20889;-77
2024/02/25 06:52:28;;;;;;;1.53;1.13;;;;;;;;;;5032062;28;20462;-77
2024/02/25 06:54:54;;;;;;;3.10;1.13;;;;;;;;;;5030972;28;20409;-78
2024/02/25 06:57:20;;;;;;;2.33;0.83;;;;;;;;;;5031778;28;20415;-78
2024/02/25 06:59:46;;;;;;;3.10;0.70;;;;;;;;;;5032168;28;20922;-78
2024/02/25 07:02:12;;;;;;;2.13;0.80;;;;;;;;;;5032143;28;20424;-78
2024/02/25 07:04:38;;;;;;;5.23;1.60;;;;;;;;;;5032137;28;20484;-79
2024/02/25 07:07:04;;;;;;;3.47;0.70;;;;;;;;;;5031962;28;20429;-80
2024/02/25 07:09:32;;;;;;;2.43;0.43;;;;;;;;;;5031973;28;20407;-78
2024/02/25 07:11:57;;;;;;;2.50;0.43;;;;;;;;;;5031809;28;20526;-79
2024/02/25 07:14:24;;;;;;;1.10;0.73;;;;;;;;;;5032092;28;20505;-80
2024/02/25 07:16:50;;;;;;;2.20;0.90;;;;;;;;;;5029512;28;20412;-78
2024/02/25 07:19:16;;;;;;;1.27;0.40;;;;;;;;;;5031987;28;20944;-79
2024/02/25 07:21:42;;;;;;;2.17;0.90;;;;;;;;;;5031964;28;20422;-79
2024/02/25 07:24:10;;;;;;;1.40;0.60;;;;;;;;;;5031894;28;20500;-79
2024/02/25 07:26:37;;;;;;;4.47;0.90;;;;;;;;;;5035368;28;20411;-81
2024/02/25 07:29:03;;;;;;;0.77;0.43;;;;;;;;;;5034739;28;20872;-81
2024/02/25 07:31:29;;;;;;;1.33;0.57;;;;;;;;;;5035972;28;20792;-81
2024/02/25 07:33:55;;;;;;;1.50;0.60;;;;;;;;;;5035810;28;20468;-81
2024/02/25 07:36:21;;;;;;;3.50;1.50;;;;;;;;;;5035807;28;20489;-82
2024/02/25 07:38:47;;;;;;;1.70;0.60;;;;;;;;;;5034320;28;20427;-83
2024/02/25 07:41:12;;;;;;;2.13;1.27;;;;;;;;;;5035217;28;20421;-82
2024/02/25 07:43:39;;;;;;;1.80;0.40;;;;;;;;;;5035657;28;20415;-78
2024/02/25 07:46:08;;;;;;;2.23;1.07;;;;;;;;;;5035561;28;20496;-84
2024/02/25 07:48:34;;;;;;;2.20;1.10;;;;;;;;;;5035435;28;20449;-83
2024/02/25 07:51:00;;;;;;;2.33;1.03;;;;;;;;;;5035508;28;20504;-80
2024/02/25 07:53:26;;;;;;;2.00;1.03;;;;;;;;;;5035401;28;20461;-82
2024/02/25 07:55:53;;;;;;;3.20;0.60;;;;;;;;;;5033571;28;20429;-80
2024/02/25 07:58:19;;;;;;;1.17;0.30;;;;;;;;;;5035466;28;20947;-81
2024/02/25 08:00:44;;;;;;;2.10;1.13;;;;;;;;;;5035360;28;20497;-83
2024/02/25 08:03:10;;;;;;;1.50;0.40;;;;;;;;;;5035372;28;20415;-79
2024/02/25 08:05:36;;;;;;;1.13;0.60;;;;;;;;;;5033958;28;20521;-78
2024/02/25 08:08:02;;;;;;;1.30;1.00;;;;;;;;;;5035211;28;20413;-81
2024/02/25 08:10:28;;;;;;;0.93;0.40;;;;;;;;;;5034796;28;20969;-80
2024/02/25 08:12:55;;;;;;;2.43;0.60;;;;;;;;;;5034998;28;20462;-80
2024/02/25 08:15:21;;;;;;;1.27;0.70;;;;;;;;;;5035113;28;20425;-79
2024/02/25 08:17:47;;;;;;;2.00;1.03;;;;;;;;;;5033720;28;21148;-79
2024/02/25 08:20:13;;;;;;;2.30;0.53;;;;;;;;;;5031344;28;20429;-78
2024/02/25 08:22:39;;;;;;;1.47;0.67;;;;;;;;;;5032855;28;20439;-79
2024/02/25 08:25:06;;;;;;;1.70;1.07;;;;;;;;;;5034470;28;20419;-81
2024/02/25 08:27:35;;;;;;;1.60;0.80;;;;;;;;;;5034240;28;20429;-78
2024/02/25 08:30:00;;;;;;;1.57;0.90;;;;;;;;;;5034343;28;20413;-77
2024/02/25 08:32:26;;;;;;;2.00;1.00;;;;;;;;;;5034053;28;20836;-81
2024/02/25 08:34:55;;;;;;;1.77;0.67;;;;;;;;;;5033084;28;20447;-79
2024/02/25 08:37:22;;;;;;;1.60;0.90;;;;;;;;;;5033326;28;20414;-79
2024/02/25 08:39:49;;;;;;;1.83;0.80;;;;;;;;;;5034105;28;20936;-78
2024/02/25 08:42:15;;;;;;;1.23;0.50;;;;;;;;;;5033799;28;20564;-77
2024/02/25 08:44:41;;;;;;;0.90;0.30;;;;;;;;;;5034013;28;20451;-80
2024/02/25 08:47:07;;;;;;;1.03;0.50;;;;;;;;;;5034499;28;20924;-79
2024/02/25 08:49:33;;;;;;;1.00;0.40;;;;;;;;;;5034635;28;20408;-77
2024/02/25 08:51:59;;;;;;;1.43;0.70;;;;;;;;;;5034138;28;20429;-78
2024/02/25 08:54:25;;;;;;;1.00;0.60;;;;;;;;;;5034263;28;20860;-77
2024/02/25 08:56:51;;;;;;;1.90;0.77;;;;;;;;;;5033801;28;20409;-78
2024/02/25 08:59:17;;;;;;;1.23;0.77;;;;;;;;;;5033684;28;20503;-78
2024/02/25 09:01:42;;;;;;;2.97;1.13;;;;;;;;;;5034196;28;20473;-78
2024/02/25 09:04:10;;;;;;;2.87;0.73;;;;;;;;;;5034342;28;20411;-77
2024/02/25 09:06:36;;;;;;;1.30;0.80;;;;;;;;;;5034293;28;20409;-79
2024/02/25 09:09:02;;;;;;;2.80;0.63;;;;;;;;;;5034268;28;20831;-77
2024/02/25 09:11:28;;;;;;;1.40;0.50;;;;;;;;;;5033787;28;20426;-77
2024/02/25 09:13:54;;;;;;;1.63;0.63;;;;;;;;;;5034504;28;20478;-77
2024/02/25 09:16:20;;;;;;;2.70;0.40;;;;;;;;;;5033108;28;20507;-80
2024/02/25 09:18:46;;;;;;;1.30;0.30;;;;;;;;;;5034639;28;20792;-78
2024/02/25 09:21:12;;;;;;;1.20;0.50;;;;;;;;;;5034372;28;20412;-81
2024/02/25 09:23:38;;;;;;;1.23;0.70;;;;;;;;;;5034579;28;20432;-79
2024/02/25 09:26:07;;;;;;;1.37;0.40;;;;;;;;;;5034188;28;20427;-77
2024/02/25 09:28:33;;;;;;;1.37;0.30;;;;;;;;;;5034464;28;20421;-78
2024/02/25 09:31:00;;;;;;;1.70;0.50;;;;;;;;;;5034431;28;20428;-78
2024/02/25 09:33:30;;;;;;;2.03;0.70;;;;;;;;;;5034302;28;20557;-79
2024/02/25 09:36:02;;;;;;;1.50;0.70;;;;;;;;;;5034300;28;20720;-77
2024/02/25 09:38:28;;;;;;;1.03;0.53;;;;;;;;;;5034087;28;20416;-79
2024/02/25 09:41:00;;;;;;;1.23;0.53;;;;;;;;;;5033525;28;20541;-78
2024/02/25 09:43:27;;;;;;;1.70;0.57;;;;;;;;;;5034035;28;20470;-77
2024/02/25 09:45:55;;;;;;;3.37;0.60;;;;;;;;;;5032737;28;20492;-79
2024/02/25 09:48:22;;;;;;;1.63;0.63;;;;;;;;;;5033873;28;20430;-78
2024/02/25 09:50:48;;;;;;;1.13;0.53;;;;;;;;;;5033889;28;20432;-78
2024/02/25 09:53:15;;;;;;;2.40;0.70;;;;;;;;;;5033427;28;20523;-77
2024/02/25 09:55:43;;;;;;;2.03;0.80;;;;;;;;;;5033607;28;20410;-79
2024/02/25 09:58:09;;;;;;;3.30;0.43;;;;;;;;;;5033778;28;20423;-78
2024/02/25 10:00:35;;;;;;;1.47;0.60;;;;;;;;;;5032399;28;20417;-78
2024/02/25 10:03:01;;;;;;;1.20;0.43;;;;;;;;;;5033741;28;20629;-81
2024/02/25 10:05:27;;;;;;;2.73;0.40;;;;;;;;;;5033705;28;20746;-79
2024/02/25 10:08:03;;;;;;;0.77;0.27;;;;;;;;;;5033703;28;20442;-79
2024/02/25 10:10:31;;;;;;;1.10;0.27;;;;;;;;;;5033316;28;20527;-80
2024/02/25 10:12:57;;;;;;;1.50;0.47;;;;;;;;;;5033378;28;20465;-79
2024/02/25 10:15:23;;;;;;;0.60;0.30;;;;;;;;;;5033401;28;20823;-78
2024/02/25 10:17:49;;;;;;;1.00;0.50;;;;;;;;;;5033755;28;20426;-78
2024/02/25 10:20:15;;;;;;;0.83;0.33;;;;;;;;;;5033706;28;20926;-79
2024/02/25 10:22:41;;;;;;;1.43;0.30;;;;;;;;;;5032527;28;20506;-81
2024/02/25 10:25:08;;;;;;;0.70;0.30;;;;;;;;;;5031413;28;20500;-78
2024/02/25 10:27:34;;;;;;;2.77;0.60;;;;;;;;;;5032763;28;20423;-79
2024/02/25 10:30:01;;;;;;;1.10;0.40;;;;;;;;;;5032705;28;20413;-79
2024/02/25 10:32:28;;;;;;;1.20;0.20;;;;;;;;;;5032610;28;20456;-80
2024/02/25 10:34:54;;;;;;;1.30;0.27;;;;;;;;;;5032776;28;20441;-78
2024/02/25 10:37:21;;;;;;;0.77;0.30;;;;;;;;;;5031410;28;20441;-79
2024/02/25 10:39:55;;;;;;;2.93;0.50;;;;;;;;;;5033417;28;20461;-77
2024/02/25 10:42:30;;;;;;;2.00;0.40;;;;;;;;;;5031262;28;20462;-78
2024/02/25 10:44:57;;;;;;;1.00;0.30;;;;;;;;;;5031193;28;20409;-80
2024/02/25 10:47:25;;;;;;;0.90;0.30;;;;;;;;;;5032665;28;20936;-82
2024/02/25 10:49:52;;;;;;;1.17;0.30;;;;;;;;;;5032755;28;20933;-82
2024/02/25 10:52:18;;;;;;;1.23;0.40;;;;;;;;;;5032629;28;20417;-80
2024/02/25 10:54:48;;;;;;;0.97;0.40;;;;;;;;;;5030715;28;20437;-80
2024/02/25 10:57:14;;;;;;;1.30;0.40;;;;;;;;;;5028292;28;20423;-79
2024/02/25 10:59:40;;;;;;;2.07;0.50;;;;;;;;;;5032099;28;20435;-80
2024/02/25 11:02:08;;;;;;;1.27;0.43;;;;;;;;;;5032752;28;20406;-79
2024/02/25 11:04:34;;;;;;;1.40;0.30;;;;;;;;;;5032826;28;20410;-81
2024/02/25 11:07:02;;;;;;;1.50;0.40;;;;;;;;;;5032797;28;20416;-80
2024/02/25 11:09:30;;;;;;;0.97;0.30;;;;;;;;;;5032850;28;20412;-81
2024/02/25 11:12:13;;;;;;;2.20;0.50;;;;;;;;;;5032632;28;20939;-81
2024/02/25 11:14:39;;;;;;;1.30;0.37;;;;;;;;;;5032844;28;20438;-80
2024/02/25 11:17:15;;;;;;;0.73;0.40;;;;;;;;;;5032795;28;20944;-81
2024/02/25 11:19:41;;;;;;;0.97;0.37;;;;;;;;;;5032683;28;20461;-80
2024/02/25 11:22:07;;;;;;;1.17;0.30;;;;;;;;;;5032723;28;20441;-82
2024/02/25 11:24:49;;;;;;;0.90;0.30;;;;;;;;;;5032798;28;20478;-81
2024/02/25 11:27:19;;;;;;;0.90;0.30;;;;;;;;;;5031293;28;20426;-81
2024/02/25 11:29:46;;;;;;;1.23;0.37;;;;;;;;;;5032645;28;21079;-84
2024/02/25 11:32:37;;;;;;;1.17;0.50;;;;;;;;;;5032524;28;20827;-81
2024/02/25 11:35:03;;;;;;;1.10;0.57;;;;;;;;;;5047294;28;20421;-83
2024/02/25 11:37:36;;;;;;;1.13;0.50;;;;;;;;;;5032320;28;20487;-82
2024/02/25 11:40:04;;;;;;;1.37;0.67;;;;;;;;;;5030484;28;20562;-81
2024/02/25 11:42:30;;;;;;;1.27;0.47;;;;;;;;;;5032470;28;20589;-82
2024/02/25 11:44:56;;;;;;;1.13;0.60;;;;;;;;;;5032521;28;20745;-83
2024/02/25 11:47:22;;;;;;;0.77;0.30;;;;;;;;;;5032335;28;20418;-80
2024/02/25 11:49:48;;;;;;;1.57;0.20;;;;;;;;;;5030860;28;20439;-83
2024/02/25 11:52:14;;;;;;;1.93;0.43;;;;;;;;;;5032371;28;20418;-80
2024/02/25 11:54:42;;;;;;;1.30;0.50;;;;;;;;;;5031769;28;20818;-81
2024/02/25 11:57:09;;;;;;;2.20;0.73;;;;;;;;;;5032294;28;20408;-81
2024/02/25 11:59:40;;;;;;;1.40;0.70;;;;;;;;;;5030894;28;20927;-83
2024/02/25 12:02:05;;;;;;;0.80;0.60;;;;;;;;;;5031821;28;20426;-82
2024/02/25 12:04:32;;;;;;;1.50;0.40;;;;;;;;;;5032169;28;20477;-84
2024/02/25 12:07:04;;;;;;;1.47;0.47;;;;;;;;;;5032295;28;20509;-81
2024/02/25 12:09:38;;;;;;;1.03;0.40;;;;;;;;;;5032031;28;20427;-81
2024/02/25 12:12:04;;;;;;;0.70;0.30;;;;;;;;;;5032790;28;20406;-78
2024/02/25 12:14:31;;;;;;;0.90;0.40;;;;;;;;;;5034382;28;20476;-77
2024/02/25 12:16:57;;;;;;;0.87;0.57;;;;;;;;;;5035602;28;20414;-77
2024/02/25 12:19:23;;;;;;;1.47;0.80;;;;;;;;;;5034565;28;20413;-79
2024/02/25 12:21:51;;;;;;;0.67;0.40;;;;;;;;;;5034982;28;20402;-78
2024/02/25 12:24:17;;;;;;;1.80;0.50;;;;;;;;;;5035263;28;20418;-78
2024/02/25 12:26:54;;;;;;;0.70;0.50;;;;;;;;;;5034937;28;20497;-77
2024/02/25 12:29:23;;;;;;;2.20;0.50;;;;;;;;;;5035368;28;20404;-77
2024/02/25 12:31:49;;;;;;;1.00;0.40;;;;;;;;;;5034683;28;20414;-78
2024/02/25 12:34:21;;;;;;;1.77;0.73;;;;;;;;;;5033909;28;21029;-78
2024/02/25 12:36:48;;;;;;;3.10;0.63;;;;;;;;;;5035306;28;20411;-79
2024/02/25 12:39:15;;;;;;;0.87;0.30;;;;;;;;;;5035122;28;20796;-78
2024/02/25 12:41:41;;;;;;;1.30;0.27;;;;;;;;;;5034863;28;20406;-77
2024/02/25 12:44:07;;;;;;;1.00;0.60;;;;;;;;;;5033521;28;20549;-81
2024/02/25 12:46:34;;;;;;;1.20;0.57;;;;;;;;;;5034921;28;20422;-77
2024/02/25 12:49:07;;;;;;;1.63;0.40;;;;;;;;;;5033421;28;20507;-80
2024/02/25 12:51:33;;;;;;;1.10;0.50;;;;;;;;;;5035070;28;20407;-80
2024/02/25 12:54:00;;;;;;;1.40;0.43;;;;;;;;;;5034972;28;20476;-82
2024/02/25 12:56:26;;;;;;;1.43;0.97;;;;;;;;;;5034686;28;20175;-80
2024/02/25 12:58:52;;;;;;;2.00;0.80;;;;;;;;;;5034870;28;20830;-80
2024/02/25 13:01:18;;;;;;;1.00;0.40;;;;;;;;;;5034765;28;20493;-81
2024/02/25 13:03:44;;;;;;;1.43;0.90;;;;;;;;;;5034754;28;20975;-79
2024/02/25 13:06:10;;;;;;;0.93;0.60;;;;;;;;;;5034772;28;20174;-80
2024/02/25 13:08:36;;;;;;;1.53;0.23;;;;;;;;;;5034616;28;20426;-77
2024/02/25 13:11:02;;;;;;;0.87;0.50;;;;;;;;;;5034327;28;20414;-81
2024/02/25 13:13:28;;;;;;;1.43;0.50;;;;;;;;;;5034471;28;20486;-80
2024/02/25 13:15:56;;;;;;;0.70;0.20;;;;;;;;;;5034550;28;20409;-79
2024/02/25 13:18:22;;;;;;;1.47;0.20;;;;;;;;;;5034548;28;20411;-80
2024/02/25 13:20:48;;;;;;;1.50;0.60;;;;;;;;;;5034438;28;20418;-79
2024/02/25 13:23:14;;;;;;;1.00;0.57;;;;;;;;;;5034003;28;20417;-79
2024/02/25 13:25:41;;;;;;;0.80;0.30;;;;;;;;;;5034027;28;20723;-79
2024/02/25 13:28:08;;;;;;;1.20;0.50;;;;;;;;;;5034252;28;20416;-80
2024/02/25 13:30:34;;;;;;;1.50;0.53;;;;;;;;;;5034252;28;20406;-80
2024/02/25 13:33:01;;;;;;;0.70;0.20;;;;;;;;;;5034228;28;20575;-79
2024/02/25 13:35:27;;;;;;;1.27;0.40;;;;;;;;;;5034188;28;20793;-79
2024/02/25 13:37:53;;;;;;;0.50;0.20;;;;;;;;;;5032447;28;20514;-79
2024/02/25 13:40:21;;;;;;;0.93;0.40;;;;;;;;;;5032205;28;20638;-79
2024/02/25 13:42:47;;;;;;;1.97;0.70;;;;;;;;;;5034008;28;20437;-81
2024/02/25 13:45:13;;;;;;;0.70;0.33;;;;;;;;;;5032629;28;20456;-80
2024/02/25 13:47:39;;;;;;;1.27;0.40;;;;;;;;;;5033905;28;20471;-79
2024/02/25 13:50:06;;;;;;;1.03;0.50;;;;;;;;;;5033883;28;20762;-80
2024/02/25 13:52:33;;;;;;;1.10;0.40;;;;;;;;;;5033617;28;20214;-79
2024/02/25 13:54:58;;;;;;;0.57;0.27;;;;;;;;;;5033193;28;20913;-79
2024/02/25 13:57:25;;;;;;;0.90;0.47;;;;;;;;;;5033734;28;20521;-79
2024/02/25 13:59:54;;;;;;;1.60;0.77;;;;;;;;;;5033485;28;20423;-79
2024/02/25 14:02:21;;;;;;;1.00;0.47;;;;;;;;;;5026853;28;20440;-79
2024/02/25 14:04:47;;;;;;;1.50;0.53;;;;;;;;;;5022401;28;20438;-79
2024/02/25 14:07:14;;;;;;;2.97;1.30;;;;;;;;;;5013725;28;20417;-79
2024/02/25 14:09:40;;;;;;;2.10;0.60;;;;;;;;;;5013065;28;20762;-78
2024/02/25 14:12:07;;;;;;;1.80;1.00;;;;;;;;;;5013609;28;20405;-81
2024/02/25 14:14:33;;;;;;;1.37;0.47;;;;;;;;;;5013484;28;20463;-80
2024/02/25 14:16:58;;;;;;;0.97;0.70;;;;;;;;;;5013559;28;20403;-80
2024/02/25 14:19:24;;;;;;;1.37;0.47;;;;;;;;;;5013459;28;20841;-80
2024/02/25 14:21:53;;;;;;;0.90;0.30;;;;;;;;;;5013379;28;20404;-79
2024/02/25 14:24:24;;;;;;;0.70;0.33;;;;;;;;;;5011825;28;20515;-80
2024/02/25 14:26:50;;;;;;;2.20;1.03;;;;;;;;;;5013420;28;20422;-80
2024/02/25 14:29:16;;;;;;;1.47;0.57;;;;;;;;;;5013474;28;20422;-79
2024/02/25 14:31:42;;;;;;;0.93;0.40;;;;;;;;;;5011925;28;20427;-80
2024/02/25 14:34:10;;;;;;;2.03;0.97;;;;;;;;;;5012767;28;20479;-80
2024/02/25 14:36:36;;;;;;;3.20;1.17;;;;;;;;;;5011978;28;20818;-79
2024/02/25 14:39:02;;;;;;;3.53;0.60;;;;;;;;;;5013069;28;20491;-80
2024/02/25 14:41:28;;;;;;;1.33;0.30;;;;;;;;;;5012785;28;20410;-79